Time;durP1;ratioP1;P1;durP2;ratioP2;P2;SDS_P1;SDS_P2;PMS_P1;PMS_P2;Temp;Humidity;BMP_temperature;BMP_pressure;BME280_temperature;BME280_humidity;BME280_pressure;Samples;Min_cycle;Max_cycle;Signal;HPM_P1;HPM_P2
2022/06/01 00:00:29;;;;;;;808.50;747.00;;;9.40;99.90;;;;;;5078899;28;20450;-82
2022/06/01 00:02:56;;;;;;;805.50;743.67;;;9.20;99.90;;;;;;5079214;28;20465;-81
2022/06/01 00:05:22;;;;;;;809.17;748.67;;;9.10;99.90;;;;;;5079867;28;20457;-81
2022/06/01 00:07:49;;;;;;;818.40;755.40;;;9.00;99.90;;;;;;5079350;28;20473;-81
2022/06/01 00:10:18;;;;;;;804.63;739.70;;;9.00;99.90;;;;;;5078651;28;20462;-81
2022/06/01 00:12:45;;;;;;;799.10;734.27;;;9.10;99.90;;;;;;5080263;28;20450;-82
2022/06/01 00:15:13;;;;;;;781.00;717.67;;;9.10;99.90;;;;;;5080110;28;20450;-81
2022/06/01 00:17:40;;;;;;;775.93;714.03;;;9.40;99.90;;;;;;5080023;28;20466;-81
2022/06/01 00:20:08;;;;;;;745.90;689.20;;;9.50;99.90;;;;;;5078864;28;20458;-81
2022/06/01 00:22:36;;;;;;;762.60;707.30;;;9.60;99.90;;;;;;5079971;28;20473;-81
2022/06/01 00:25:07;;;;;;;730.97;683.17;;;9.80;99.90;;;;;;5079958;28;20504;-80
2022/06/01 00:27:36;;;;;;;699.40;659.93;;;9.90;99.90;;;;;;5079579;28;20438;-81
2022/06/01 00:30:04;;;;;;;675.63;641.27;;;10.00;99.90;;;;;;5079577;28;20464;-81
2022/06/01 00:32:30;;;;;;;678.77;643.57;;;9.90;99.90;;;;;;5079943;28;20477;-81
2022/06/01 00:34:59;;;;;;;637.00;606.33;;;9.90;99.90;;;;;;5079112;28;20454;-81
2022/06/01 00:37:26;;;;;;;571.00;546.80;;;10.00;99.90;;;;;;5079643;28;20876;-81
2022/06/01 00:39:53;;;;;;;538.93;517.10;;;10.10;99.90;;;;;;5078697;28;20481;-81
2022/06/01 00:42:23;;;;;;;510.47;491.00;;;10.10;99.90;;;;;;5079933;28;20466;-81
2022/06/01 00:44:52;;;;;;;528.23;507.47;;;10.10;99.90;;;;;;5079752;28;20445;-81
2022/06/01 00:47:20;;;;;;;536.13;515.07;;;10.00;99.90;;;;;;5080289;28;20458;-80
2022/06/01 00:49:52;;;;;;;575.97;551.90;;;9.80;99.90;;;;;;5079151;28;20482;-81
2022/06/01 00:52:35;;;;;;;631.07;603.13;;;9.80;99.90;;;;;;5082472;28;20474;-81
2022/06/01 00:55:08;;;;;;;653.17;622.77;;;9.60;99.90;;;;;;5082858;28;20902;-81
2022/06/01 00:57:35;;;;;;;663.90;631.87;;;9.60;99.90;;;;;;5083327;28;20457;-81
2022/06/01 01:00:07;;;;;;;700.17;664.50;;;9.60;99.90;;;;;;5082834;28;20450;-81
2022/06/01 01:02:33;;;;;;;712.77;673.40;;;9.60;99.90;;;;;;5082809;28;20475;-82
2022/06/01 01:05:02;;;;;;;738.20;695.93;;;9.50;99.90;;;;;;5083374;28;20454;-81
2022/06/01 01:07:29;;;;;;;758.90;713.97;;;9.50;99.90;;;;;;5082070;28;20450;-81
2022/06/01 01:09:56;;;;;;;776.90;729.90;;;9.20;99.90;;;;;;5082059;28;20481;-81
2022/06/01 01:12:24;;;;;;;794.83;745.07;;;9.00;99.90;;;;;;5082511;28;20913;-81
2022/06/01 01:14:52;;;;;;;804.57;751.50;;;8.90;99.90;;;;;;5082241;28;20965;-81
2022/06/01 01:17:21;;;;;;;816.93;760.60;;;8.80;99.90;;;;;;5082480;28;20451;-81
2022/06/01 01:19:52;;;;;;;825.70;767.63;;;8.70;99.90;;;;;;5081868;28;20446;-81
2022/06/01 01:22:37;;;;;;;814.27;751.17;;;8.50;99.90;;;;;;5082715;28;21045;-82
2022/06/01 01:25:17;;;;;;;786.97;725.17;;;8.70;99.90;;;;;;5082290;28;20498;-81
2022/06/01 01:27:45;;;;;;;777.50;720.27;;;8.90;99.90;;;;;;5079206;28;20452;-81
2022/06/01 01:30:41;;;;;;;773.20;718.77;;;9.00;99.90;;;;;;5082174;28;20492;-81
2022/06/01 01:33:13;;;;;;;774.70;722.07;;;9.20;99.90;;;;;;5083871;28;20443;-81
2022/06/01 01:35:41;;;;;;;783.50;728.50;;;9.10;99.90;;;;;;5082869;28;20455;-81
2022/06/01 01:38:14;;;;;;;786.73;730.83;;;8.90;99.90;;;;;;5081959;28;20455;-79
2022/06/01 01:40:42;;;;;;;779.57;721.27;;;8.90;99.90;;;;;;5062037;28;20477;-81
2022/06/01 01:43:10;;;;;;;778.63;719.53;;;8.80;99.90;;;;;;5065438;28;20470;-81
2022/06/01 01:45:37;;;;;;;777.27;718.10;;;8.70;99.90;;;;;;5082518;28;20985;-81
2022/06/01 01:48:05;;;;;;;781.93;722.13;;;8.70;99.90;;;;;;5082171;28;20450;-81
2022/06/01 01:50:33;;;;;;;776.77;717.10;;;8.70;99.90;;;;;;5081653;28;20458;-81
2022/06/01 01:53:00;;;;;;;781.00;720.20;;;8.70;99.90;;;;;;5082442;28;20456;-81
2022/06/01 01:55:37;;;;;;;776.20;715.50;;;8.70;99.90;;;;;;5081904;28;20454;-81
2022/06/01 01:58:12;;;;;;;773.40;715.10;;;8.70;99.90;;;;;;5081600;28;20495;-81
2022/06/01 02:00:44;;;;;;;764.50;708.00;;;8.70;99.90;;;;;;5081799;28;20546;-81
2022/06/01 02:03:15;;;;;;;755.53;700.10;;;8.80;99.90;;;;;;5081821;28;20974;-81
2022/06/01 02:06:05;;;;;;;756.33;701.53;;;8.80;99.90;;;;;;5081703;28;20794;-81
2022/06/01 02:08:36;;;;;;;750.67;697.07;;;8.80;99.90;;;;;;5080177;28;21028;-80
2022/06/01 02:13:59;;;;;;;751.23;698.13;;;8.70;99.90;;;;;;5082579;28;20970;-81
2022/06/01 02:16:29;;;;;;;743.93;693.83;;;8.70;99.90;;;;;;5082681;28;20458;-81
2022/06/01 02:19:00;;;;;;;735.87;689.70;;;8.70;99.90;;;;;;5082361;28;20446;-81
2022/06/01 02:21:29;;;;;;;718.83;676.43;;;8.70;99.90;;;;;;5082836;28;20591;-81
2022/06/01 02:23:59;;;;;;;722.23;680.23;;;8.80;99.90;;;;;;5081623;28;20478;-81
2022/06/01 02:26:26;;;;;;;733.63;689.43;;;8.70;99.90;;;;;;5080971;28;20442;-80
2022/06/01 02:29:02;;;;;;;738.80;694.33;;;8.50;99.90;;;;;;5080562;28;20470;-81
2022/06/01 02:31:30;;;;;;;753.67;706.90;;;8.50;99.90;;;;;;5081477;28;20466;-81
2022/06/01 02:33:57;;;;;;;776.07;727.27;;;8.30;99.90;;;;;;5082036;28;20457;-81
2022/06/01 02:36:26;;;;;;;779.83;728.03;;;8.20;99.90;;;;;;5079823;28;20985;-82
2022/06/01 02:38:55;;;;;;;793.07;739.97;;;8.10;99.90;;;;;;5083705;28;20454;-81
2022/06/01 02:44:08;;;;;;;793.03;737.77;;;8.00;99.90;;;;;;5080289;28;20449;-81
2022/06/01 02:46:36;;;;;;;777.97;723.63;;;7.90;99.90;;;;;;5080763;28;20497;-82
2022/06/01 02:49:03;;;;;;;788.80;734.60;;;8.00;99.90;;;;;;5080185;28;20470;-81
2022/06/01 02:51:30;;;;;;;780.73;726.30;;;8.00;99.90;;;;;;5071221;28;21002;-81
2022/06/01 02:53:57;;;;;;;777.57;723.17;;;8.00;99.90;;;;;;5081437;28;20545;-80
2022/06/01 02:56:25;;;;;;;784.87;728.17;;;8.00;99.90;;;;;;5080651;28;20453;-81
2022/06/01 02:58:51;;;;;;;788.67;731.80;;;8.00;99.90;;;;;;5080553;28;20454;-81
2022/06/01 03:01:20;;;;;;;783.53;727.53;;;8.00;99.90;;;;;;5081161;28;20466;-81
2022/06/01 03:03:47;;;;;;;786.03;731.00;;;8.00;99.90;;;;;;5080589;28;20450;-81
2022/06/01 03:06:14;;;;;;;783.27;727.90;;;7.90;99.90;;;;;;5080903;28;20450;-80
2022/06/01 03:08:41;;;;;;;785.70;729.50;;;7.90;99.90;;;;;;5071623;28;20478;-81
2022/06/01 03:11:08;;;;;;;790.73;734.30;;;7.90;99.90;;;;;;5079792;28;20471;-80
2022/06/01 03:13:35;;;;;;;794.93;737.37;;;7.90;99.90;;;;;;5070356;28;20969;-81
2022/06/01 03:16:02;;;;;;;797.77;740.87;;;7.90;99.90;;;;;;5080983;28;20507;-81
2022/06/01 03:18:31;;;;;;;811.33;754.50;;;7.80;99.90;;;;;;5080241;28;21092;-81
2022/06/01 03:20:58;;;;;;;813.07;755.30;;;7.70;99.90;;;;;;5081210;28;20470;-81
2022/06/01 03:23:25;;;;;;;805.43;746.63;;;7.70;99.90;;;;;;5081515;28;20450;-81
2022/06/01 03:25:53;;;;;;;801.20;742.43;;;7.70;99.90;;;;;;5081780;28;20446;-81
2022/06/01 03:28:20;;;;;;;817.23;759.00;;;7.70;99.90;;;;;;5079820;28;20449;-81
2022/06/01 03:30:46;;;;;;;808.23;750.70;;;7.70;99.90;;;;;;5079225;28;20481;-81
2022/06/01 03:33:14;;;;;;;793.60;736.30;;;7.80;99.90;;;;;;5079937;28;20834;-81
2022/06/01 03:35:42;;;;;;;798.07;740.37;;;7.80;99.90;;;;;;5081327;28;20451;-81
2022/06/01 03:38:09;;;;;;;790.77;734.10;;;7.90;99.90;;;;;;5082265;28;20541;-79
2022/06/01 03:40:38;;;;;;;795.87;738.80;;;7.80;99.90;;;;;;5080849;28;20469;-81
2022/06/01 03:43:06;;;;;;;802.07;742.47;;;7.80;99.90;;;;;;5081091;28;20450;-81
2022/06/01 03:48:18;;;;;;;801.43;742.03;;;7.80;99.90;;;;;;5081364;28;20417;-81
2022/06/01 03:50:46;;;;;;;802.83;743.17;;;7.80;99.90;;;;;;5080681;28;20478;-81
2022/06/01 03:53:13;;;;;;;796.43;736.77;;;7.80;99.90;;;;;;5081083;28;20454;-81
2022/06/01 03:55:40;;;;;;;791.03;732.07;;;7.80;99.90;;;;;;5082272;28;20450;-83
2022/06/01 03:58:07;;;;;;;802.03;742.47;;;7.90;99.90;;;;;;5079477;28;20514;-79
2022/06/01 04:00:34;;;;;;;795.67;735.87;;;8.00;99.90;;;;;;5080626;28;20467;-82
2022/06/01 04:03:01;;;;;;;791.83;732.30;;;8.10;99.90;;;;;;5079605;28;20463;-82
2022/06/01 04:05:28;;;;;;;788.33;729.00;;;8.10;99.90;;;;;;5080874;28;20450;-82
2022/06/01 04:07:56;;;;;;;784.23;725.53;;;8.00;99.90;;;;;;5080936;28;20876;-82
2022/06/01 04:10:23;;;;;;;770.63;712.37;;;8.00;99.90;;;;;;5081638;28;20473;-82
2022/06/01 04:12:49;;;;;;;782.90;724.73;;;8.10;99.90;;;;;;5081575;28;20451;-81
2022/06/01 04:15:17;;;;;;;778.37;720.13;;;8.20;99.90;;;;;;5081175;28;20450;-82
2022/06/01 04:17:44;;;;;;;781.17;724.37;;;8.20;99.90;;;;;;5082490;28;20969;-81
2022/06/01 04:20:12;;;;;;;773.60;718.20;;;8.20;99.90;;;;;;5077645;28;20447;-81
2022/06/01 04:22:42;;;;;;;772.73;717.37;;;8.30;99.90;;;;;;5076636;28;20446;-80
2022/06/01 04:25:13;;;;;;;769.13;714.13;;;8.30;99.90;;;;;;5083370;28;20454;-82
2022/06/01 04:27:39;;;;;;;758.67;703.73;;;8.20;99.90;;;;;;5084733;28;20805;-82
2022/06/01 04:30:08;;;;;;;761.30;706.90;;;8.30;99.90;;;;;;5082453;28;20474;-81
2022/06/01 04:32:35;;;;;;;742.67;689.97;;;8.40;99.90;;;;;;5084122;28;20474;-81
2022/06/01 04:35:03;;;;;;;743.20;691.10;;;8.50;99.90;;;;;;5089447;28;20457;-82
2022/06/01 04:37:29;;;;;;;758.23;707.80;;;8.50;99.90;;;;;;5084341;28;20457;-80
2022/06/01 04:39:56;;;;;;;746.83;696.57;;;8.60;99.90;;;;;;5090081;28;20446;-83
2022/06/01 04:42:24;;;;;;;754.87;706.07;;;8.80;99.90;;;;;;5087552;28;20478;-83
2022/06/01 04:44:52;;;;;;;750.13;703.63;;;8.70;99.90;;;;;;5084372;28;20450;-82
2022/06/01 04:47:19;;;;;;;745.87;699.70;;;8.80;99.90;;;;;;5083329;28;20454;-82
2022/06/01 04:49:46;;;;;;;745.53;700.67;;;8.90;99.90;;;;;;5083674;28;20478;-82
2022/06/01 04:52:16;;;;;;;746.00;701.50;;;9.00;99.90;;;;;;5083679;28;21086;-82
2022/06/01 04:54:43;;;;;;;732.37;690.07;;;9.10;99.90;;;;;;5083867;28;20454;-82
2022/06/01 04:57:10;;;;;;;731.57;690.60;;;9.00;99.90;;;;;;5082589;28;20808;-82
2022/06/01 04:59:40;;;;;;;727.83;687.27;;;9.10;99.90;;;;;;5083369;28;20450;-82
2022/06/01 05:02:07;;;;;;;703.13;665.27;;;9.30;99.90;;;;;;5082749;28;20470;-82
2022/06/01 05:04:34;;;;;;;681.70;646.67;;;9.30;99.90;;;;;;5083142;28;20453;-82
2022/06/01 05:07:02;;;;;;;673.10;639.40;;;9.40;99.90;;;;;;5082593;28;20450;-82
2022/06/01 05:09:29;;;;;;;631.13;601.57;;;9.50;99.90;;;;;;5081967;28;20470;-82
2022/06/01 05:11:56;;;;;;;598.20;571.80;;;9.60;99.90;;;;;;5082902;28;20847;-81
2022/06/01 05:14:23;;;;;;;582.37;557.47;;;9.60;99.90;;;;;;5086081;28;20446;-84
2022/06/01 05:16:51;;;;;;;567.77;543.50;;;9.60;99.90;;;;;;5085199;28;20458;-82
2022/06/01 05:19:19;;;;;;;661.43;627.80;;;9.70;99.90;;;;;;5083073;28;20961;-82
2022/06/01 05:21:46;;;;;;;498.23;477.03;;;10.20;99.90;;;;;;5082338;28;20470;-81
2022/06/01 05:24:12;;;;;;;39.77;37.33;;;10.70;99.90;;;;;;5081345;28;20457;-83
2022/06/01 05:26:39;;;;;;;8.37;7.47;;;11.20;99.90;;;;;;5080933;28;20450;-82
2022/06/01 05:29:06;;;;;;;9.10;5.43;;;11.60;99.90;;;;;;5085377;28;20461;-82
2022/06/01 05:31:32;;;;;;;7.50;5.03;;;12.10;99.90;;;;;;5083245;28;20485;-83
2022/06/01 05:34:00;;;;;;;10.63;4.70;;;12.30;96.30;;;;;;5081863;28;20450;-82
2022/06/01 05:36:29;;;;;;;7.07;3.90;;;12.80;95.80;;;;;;5086340;28;20449;-84
2022/06/01 05:38:56;;;;;;;6.97;4.37;;;13.10;91.90;;;;;;5086312;28;20975;-83
2022/06/01 05:41:22;;;;;;;6.00;3.80;;;13.30;90.80;;;;;;5080742;28;20461;-82
2022/06/01 05:43:51;;;;;;;6.27;3.63;;;13.60;85.00;;;;;;5083900;28;20462;-82
2022/06/01 05:46:18;;;;;;;8.40;4.27;;;13.80;83.60;;;;;;5078769;28;20465;-82
2022/06/01 05:48:45;;;;;;;7.70;4.13;;;14.10;80.00;;;;;;5072691;28;20474;-83
2022/06/01 05:51:13;;;;;;;8.23;4.33;;;14.40;80.70;;;;;;5059341;28;20489;-82
2022/06/01 05:53:40;;;;;;;8.70;4.20;;;14.60;73.30;;;;;;5080964;28;20446;-80
2022/06/01 05:56:08;;;;;;;6.67;4.00;;;14.60;72.90;;;;;;5080621;28;20458;-80
2022/06/01 05:58:34;;;;;;;7.50;3.90;;;14.80;70.80;;;;;;5078800;28;21000;-79
2022/06/01 06:01:09;;;;;;;7.10;3.50;;;14.90;72.10;;;;;;5080390;28;20471;-80
2022/06/01 06:03:36;;;;;;;7.10;3.93;;;14.90;68.90;;;;;;5081235;28;20435;-83
2022/06/01 06:06:13;;;;;;;5.43;3.23;;;14.90;67.50;;;;;;5078594;28;20443;-82
2022/06/01 06:08:44;;;;;;;14.00;4.10;;;14.80;66.80;;;;;;5080233;28;20556;-83
2022/06/01 06:11:11;;;;;;;7.43;3.70;;;15.00;67.50;;;;;;5082659;28;20478;-82
2022/06/01 06:13:38;;;;;;;10.07;3.67;;;15.30;69.10;;;;;;5076719;28;20443;-82
2022/06/01 06:16:05;;;;;;;6.60;3.37;;;15.40;63.70;;;;;;5082766;28;20447;-83
2022/06/01 06:18:32;;;;;;;7.87;4.00;;;15.70;60.50;;;;;;5079713;28;20460;-83
2022/06/01 06:20:59;;;;;;;5.77;3.23;;;15.80;61.90;;;;;;5078952;28;20473;-82
2022/06/01 06:23:26;;;;;;;7.00;3.47;;;15.80;58.00;;;;;;5079335;28;20447;-83
2022/06/01 06:25:57;;;;;;;7.37;2.93;;;15.90;59.40;;;;;;5080585;28;20813;-83
2022/06/01 06:28:24;;;;;;;12.13;3.37;;;16.10;56.50;;;;;;5079341;28;20453;-81
2022/06/01 06:30:52;;;;;;;9.80;3.10;;;16.20;58.30;;;;;;5082544;28;20486;-83
2022/06/01 06:33:19;;;;;;;8.40;3.00;;;16.50;58.60;;;;;;5078266;28;20455;-82
2022/06/01 06:35:46;;;;;;;7.77;3.37;;;17.10;56.60;;;;;;5081296;28;20451;-83
2022/06/01 06:38:16;;;;;;;9.83;3.70;;;17.40;50.80;;;;;;5079801;28;20492;-83
2022/06/01 06:40:42;;;;;;;8.77;3.80;;;17.50;54.10;;;;;;5080060;28;21009;-81
2022/06/01 06:43:10;;;;;;;9.00;3.63;;;17.10;50.50;;;;;;5082010;28;20859;-81
2022/06/01 06:45:37;;;;;;;6.90;3.90;;;16.80;51.80;;;;;;5081212;28;20443;-82
2022/06/01 06:48:05;;;;;;;10.83;3.70;;;16.30;53.20;;;;;;5079238;28;20458;-82
2022/06/01 06:50:32;;;;;;;15.00;3.90;;;16.30;54.00;;;;;;5080662;28;20521;-84
2022/06/01 06:52:59;;;;;;;11.63;3.57;;;16.30;56.00;;;;;;5085123;28;20540;-83
2022/06/01 06:55:25;;;;;;;6.03;3.40;;;16.20;53.60;;;;;;5081544;28;20450;-83
2022/06/01 06:57:52;;;;;;;8.40;4.20;;;16.10;53.90;;;;;;5086685;28;20465;-83
2022/06/01 07:00:20;;;;;;;7.77;3.50;;;16.10;56.40;;;;;;5083938;28;20497;-82
2022/06/01 07:02:47;;;;;;;8.07;3.90;;;16.10;55.50;;;;;;5084984;28;20476;-82
2022/06/01 07:06:08;;;;;;;8.23;3.87;;;16.20;56.60;;;;;;5083803;28;20542;-82
2022/06/01 07:08:03;;;;;;;12.03;3.63;;;16.20;55.70;;;;;;5080164;28;20446;-82
2022/06/01 07:10:30;;;;;;;6.17;3.53;;;15.90;53.60;;;;;;5080790;28;20453;-82
2022/06/01 07:12:57;;;;;;;9.30;3.97;;;16.10;54.70;;;;;;5082779;28;20451;-83
2022/06/01 07:15:26;;;;;;;7.73;3.50;;;16.20;53.50;;;;;;5084420;28;20449;-82
2022/06/01 07:17:53;;;;;;;7.23;3.73;;;16.30;55.20;;;;;;5083708;28;20786;-83
2022/06/01 07:20:20;;;;;;;7.33;3.80;;;16.10;53.90;;;;;;5084296;28;20589;-83
2022/06/01 07:22:47;;;;;;;6.87;3.83;;;16.10;56.20;;;;;;5084009;28;20450;-82
2022/06/01 07:25:14;;;;;;;9.10;3.13;;;16.00;55.10;;;;;;5083045;28;20455;-83
2022/06/01 07:27:42;;;;;;;13.20;3.23;;;16.00;56.00;;;;;;5082209;28;20460;-83
2022/06/01 07:30:10;;;;;;;6.80;3.00;;;16.10;54.20;;;;;;5082118;28;20523;-83
2022/06/01 07:32:40;;;;;;;8.27;3.60;;;16.20;54.90;;;;;;5080212;28;20893;-82
2022/06/01 07:35:08;;;;;;;8.60;3.20;;;16.60;56.10;;;;;;5079961;28;20454;-82
2022/06/01 07:43:14;;;;;;;7.10;3.00;;;17.30;48.40;;;;;;5079213;28;20818;-82
2022/06/01 07:45:44;;;;;;;8.48;3.20;;;17.40;49.30;;;;;;5078396;28;20460;-82
2022/06/01 07:48:12;;;;;;;12.07;3.07;;;17.60;47.00;;;;;;5078604;28;20181;-83
2022/06/01 07:50:39;;;;;;;7.30;3.13;;;17.90;49.60;;;;;;5079456;28;20486;-82
2022/06/01 07:53:08;;;;;;;5.83;2.90;;;18.20;44.20;;;;;;5080997;28;20776;-84
2022/06/01 07:55:35;;;;;;;6.30;1.93;;;18.30;42.80;;;;;;5078339;28;20453;-82
2022/06/01 07:58:02;;;;;;;5.83;2.37;;;18.30;38.20;;;;;;5079768;28;20457;-82
2022/06/01 08:00:29;;;;;;;6.00;2.07;;;17.80;41.00;;;;;;5078898;28;20496;-82
2022/06/01 08:02:56;;;;;;;4.73;1.97;;;17.30;41.10;;;;;;5080337;28;20507;-82
2022/06/01 08:05:24;;;;;;;6.50;2.03;;;17.90;42.40;;;;;;5080022;28;20942;-82
2022/06/01 08:07:51;;;;;;;5.70;2.50;;;18.60;40.00;;;;;;5079757;28;20484;-83
2022/06/01 08:10:20;;;;;;;7.00;2.40;;;18.80;39.50;;;;;;5079411;28;20451;-82
2022/06/01 08:15:35;;;;;;;6.40;2.07;;;19.40;34.70;;;;;;5080072;28;20942;-83
2022/06/01 08:18:02;;;;;;;5.53;2.10;;;20.20;31.40;;;;;;5080050;28;20490;-82
2022/06/01 08:20:31;;;;;;;5.20;2.37;;;20.20;27.50;;;;;;5079253;28;20467;-81
2022/06/01 08:22:59;;;;;;;11.87;1.93;;;20.20;27.20;;;;;;5080586;28;20456;-81
2022/06/01 08:25:27;;;;;;;11.30;2.00;;;19.90;26.10;;;;;;5081663;28;20452;-80
2022/06/01 08:27:54;;;;;;;5.53;2.20;;;19.10;29.90;;;;;;5081999;28;20446;-81
2022/06/01 08:30:23;;;;;;;7.37;1.77;;;18.80;27.90;;;;;;5080207;28;20452;-80
2022/06/01 08:32:50;;;;;;;4.97;1.80;;;19.10;29.20;;;;;;5080457;28;20449;-80
2022/06/01 08:35:19;;;;;;;5.40;1.83;;;19.10;30.20;;;;;;5080395;28;20454;-80
2022/06/01 08:37:48;;;;;;;5.30;2.60;;;19.10;27.10;;;;;;5080237;28;20451;-80
2022/06/01 08:40:18;;;;;;;6.10;1.83;;;19.10;29.60;;;;;;5079676;28;20463;-79
2022/06/01 08:42:57;;;;;;;8.03;2.10;;;19.10;30.10;;;;;;5080663;28;20457;-80
2022/06/01 08:45:27;;;;;;;7.37;2.20;;;19.30;28.80;;;;;;5080606;28;20433;-80
2022/06/01 08:47:54;;;;;;;6.10;2.50;;;19.90;27.60;;;;;;5081281;28;20445;-81
2022/06/01 08:50:25;;;;;;;5.67;2.00;;;19.60;25.10;;;;;;5080882;28;20794;-80
2022/06/01 08:52:56;;;;;;;5.27;1.43;;;19.20;23.20;;;;;;5081349;28;20437;-80
2022/06/01 08:55:29;;;;;;;7.40;2.33;;;19.40;26.60;;;;;;5080024;28;20443;-80
2022/06/01 08:58:02;;;;;;;5.90;2.17;;;19.00;25.10;;;;;;5081519;28;20434;-80
2022/06/01 09:00:32;;;;;;;6.90;2.50;;;19.20;26.50;;;;;;5080623;28;20476;-80
2022/06/01 09:03:07;;;;;;;4.40;2.03;;;19.10;23.90;;;;;;5081688;28;20450;-80
2022/06/01 09:05:43;;;;;;;6.07;2.17;;;18.90;24.30;;;;;;5082191;28;20516;-81
2022/06/01 09:08:20;;;;;;;7.20;2.43;;;18.80;25.80;;;;;;5081021;28;20490;-79
2022/06/01 09:11:00;;;;;;;6.83;3.17;;;19.40;25.40;;;;;;5081519;28;20469;-79
2022/06/01 09:13:35;;;;;;;7.20;1.87;;;20.20;24.70;;;;;;5085326;28;20912;-81
2022/06/01 09:16:08;;;;;;;11.10;1.97;;;21.20;24.00;;;;;;5085168;28;20513;-80
2022/06/01 09:18:51;;;;;;;5.90;2.17;;;21.50;20.80;;;;;;5084038;28;20500;-79
2022/06/01 09:24:09;;;;;;;6.00;2.20;;;21.80;17.80;;;;;;5076124;28;20494;-78
2022/06/01 09:26:48;;;;;;;5.93;1.97;;;21.10;15.00;;;;;;5083054;28;20460;-79
2022/06/01 09:29:20;;;;;;;8.50;1.90;;;21.40;16.90;;;;;;5085469;28;20472;-82
2022/06/01 09:31:49;;;;;;;11.63;2.97;;;21.40;15.80;;;;;;5079861;28;20467;-82
2022/06/01 09:34:23;;;;;;;4.97;1.87;;;21.70;14.20;;;;;;5079124;28;20455;-84
2022/06/01 09:36:55;;;;;;;8.97;2.23;;;21.40;14.10;;;;;;5081260;28;20452;-85
2022/06/01 09:39:24;;;;;;;6.00;1.70;;;21.50;15.10;;;;;;5079183;28;20468;-85
2022/06/01 09:41:50;;;;;;;5.73;2.00;;;21.40;13.20;;;;;;5089213;28;20492;-82
2022/06/01 09:44:31;;;;;;;6.23;2.20;;;21.40;14.40;;;;;;5091742;28;20516;-81
2022/06/01 09:47:04;;;;;;;5.43;1.77;;;21.50;13.30;;;;;;5089865;28;20811;-83
2022/06/01 09:49:32;;;;;;;5.23;2.13;;;21.80;13.80;;;;;;5087086;28;20458;-80
2022/06/01 09:52:02;;;;;;;6.77;2.40;;;21.80;13.70;;;;;;5081519;28;20877;-84
2022/06/01 09:54:33;;;;;;;7.50;2.40;;;21.70;10.80;;;;;;5077574;28;20837;-86
2022/06/01 09:57:17;;;;;;;9.20;2.20;;;21.50;13.30;;;;;;5076589;28;20462;-85
2022/06/01 10:09:10;;;;;;;4.87;2.00;;;23.40;7.00;;;;;;5073282;28;20526;-85
2022/06/01 10:11:43;;;;;;;5.07;1.60;;;23.30;2.20;;;;;;5060620;28;20458;-83
2022/06/01 10:14:20;;;;;;;6.53;2.50;;;24.00;1.80;;;;;;5059908;28;20478;-85
2022/06/01 10:17:04;;;;;;;6.13;1.87;;;23.30;5.30;;;;;;5077015;28;20449;-84
2022/06/01 10:19:35;;;;;;;5.43;2.40;;;21.60;5.70;;;;;;5076741;28;20441;-84
2022/06/01 10:22:08;;;;;;;4.67;1.23;;;21.40;7.70;;;;;;5075701;28;20482;-84
2022/06/01 10:24:38;;;;;;;5.97;1.30;;;21.10;4.10;;;;;;5075328;28;20464;-84
2022/06/01 10:27:07;;;;;;;5.90;1.60;;;20.40;2.50;;;;;;5076416;28;20528;-84
2022/06/01 10:29:37;;;;;;;6.80;1.93;;;21.20;6.10;;;;;;5074951;28;20456;-84
2022/06/01 10:32:09;;;;;;;4.80;1.93;;;21.00;6.20;;;;;;5075620;28;20479;-84
2022/06/01 10:34:41;;;;;;;6.87;1.80;;;21.60;7.20;;;;;;5074852;28;20550;-84
2022/06/01 10:37:17;;;;;;;5.23;1.90;;;22.10;6.10;;;;;;5074488;28;20949;-84
2022/06/01 10:39:48;;;;;;;6.63;1.57;;;22.90;5.30;;;;;;5080102;28;20452;-81
2022/06/01 10:42:22;;;;;;;6.50;1.67;;;23.20;1.00;;;;;;5085036;28;20485;-83
2022/06/01 10:44:58;;;;;;;6.50;1.63;;;24.00;1.00;;;;;;5081262;28;20446;-83
2022/06/01 10:47:37;;;;;;;4.60;1.93;;;23.90;1.00;;;;;;5083920;28;20833;-84
2022/06/01 10:50:09;;;;;;;5.33;2.00;;;23.00;1.00;;;;;;5083678;28;20521;-83
2022/06/01 10:52:42;;;;;;;5.70;2.17;;;23.70;1.30;;;;;;5082132;28;20470;-84
2022/06/01 10:55:14;;;;;;;5.30;1.80;;;23.60;1.00;;;;;;5074807;28;20458;-85
2022/06/01 10:57:45;;;;;;;5.63;1.73;;;23.60;1.00;;;;;;5072371;28;20473;-87
2022/06/01 11:00:14;;;;;;;7.03;1.90;;;24.70;1.00;;;;;;5075006;28;20446;-87
2022/06/01 11:02:59;;;;;;;14.50;3.17;;;25.20;1.00;;;;;;5073682;28;20528;-85
2022/06/01 11:05:49;;;;;;;5.27;2.00;;;25.20;1.00;;;;;;5074012;28;20454;-86
2022/06/01 11:09:10;;;;;;;11.03;3.03;;;24.40;1.00;;;;;;5068793;28;20454;-85
2022/06/01 11:14:59;;;;;;;6.20;2.03;;;25.10;1.00;;;;;;5079614;28;20454;-82
2022/06/01 11:17:34;;;;;;;6.83;1.70;;;24.50;1.00;;;;;;5060765;28;20448;-82
2022/06/01 11:20:14;;;;;;;4.63;1.57;;;23.20;1.00;;;;;;5079730;28;20537;-82
2022/06/01 11:22:52;;;;;;;8.93;1.70;;;23.50;1.00;;;;;;5079262;28;20519;-82
2022/06/01 11:25:23;;;;;;;5.60;2.10;;;23.60;1.00;;;;;;5079515;28;20446;-82
2022/06/01 11:28:22;;;;;;;7.03;2.27;;;23.90;1.00;;;;;;5080635;28;20447;-82
2022/06/01 11:31:00;;;;;;;6.37;2.20;;;24.90;1.00;;;;;;5079745;28;20470;-83
2022/06/01 11:33:34;;;;;;;7.30;2.27;;;25.70;1.00;;;;;;5079680;28;20449;-82
2022/06/01 11:36:11;;;;;;;6.23;1.80;;;27.00;1.00;;;;;;5084353;28;20461;-83
2022/06/01 11:38:41;;;;;;;4.53;1.60;;;26.90;1.00;;;;;;5083209;28;20978;-83
2022/06/01 11:41:13;;;;;;;5.47;1.77;;;25.50;1.00;;;;;;5062455;28;20984;-83
2022/06/01 11:43:42;;;;;;;4.80;1.40;;;24.50;1.00;;;;;;5064271;28;20459;-83
2022/06/01 11:46:15;;;;;;;5.30;1.60;;;23.70;1.00;;;;;;5084208;28;20477;-83
2022/06/01 11:48:48;;;;;;;6.70;2.00;;;22.80;1.00;;;;;;5082478;28;20453;-85
2022/06/01 11:51:17;;;;;;;7.43;2.20;;;21.30;1.00;;;;;;5082557;28;20564;-84
2022/06/01 11:53:54;;;;;;;8.03;2.33;;;21.20;1.00;;;;;;5083040;28;20832;-85
2022/06/01 11:56:33;;;;;;;5.73;1.70;;;21.10;1.00;;;;;;5062751;28;20460;-84
2022/06/01 11:59:13;;;;;;;7.30;2.40;;;21.00;1.00;;;;;;5064194;28;20456;-83
2022/06/01 12:01:52;;;;;;;9.00;2.10;;;21.90;1.00;;;;;;5078805;28;20506;-83
2022/06/01 12:04:24;;;;;;;7.20;2.20;;;22.80;1.00;;;;;;5083657;28;20440;-83
2022/06/01 12:06:57;;;;;;;6.20;2.00;;;23.70;1.00;;;;;;5077824;28;20450;-86
2022/06/01 12:09:35;;;;;;;8.73;2.20;;;24.50;1.00;;;;;;5080514;28;20462;-85
2022/06/01 12:12:06;;;;;;;5.40;1.60;;;25.90;1.00;;;;;;5085324;28;20472;-84
2022/06/01 12:14:42;;;;;;;6.43;1.53;;;26.50;1.00;;;;;;5083814;28;20480;-83
2022/06/01 12:17:34;;;;;;;13.40;1.80;;;27.60;1.00;;;;;;5082578;28;20478;-85
2022/06/01 12:30:29;;;;;;;4.67;1.33;;;26.00;1.00;;;;;;5073293;28;20965;-86
2022/06/01 12:36:15;;;;;;;5.00;1.23;;;22.70;1.00;;;;;;5067274;28;20413;-85
2022/06/01 12:38:42;;;;;;;5.90;1.10;;;21.70;1.00;;;;;;5082120;28;20457;-84
2022/06/01 12:41:16;;;;;;;4.30;1.33;;;21.20;1.00;;;;;;5083741;28;20445;-85
2022/06/01 12:43:48;;;;;;;3.90;0.90;;;21.30;1.00;;;;;;5084249;28;20521;-84
2022/06/01 12:46:24;;;;;;;4.00;1.20;;;21.60;1.00;;;;;;5085414;28;20467;-84
2022/06/01 12:48:51;;;;;;;7.30;1.30;;;22.30;1.00;;;;;;5086547;28;20454;-84
2022/06/01 12:51:19;;;;;;;3.80;0.97;;;22.50;1.00;;;;;;5086244;28;20482;-85
2022/06/01 12:53:50;;;;;;;4.27;1.40;;;22.80;1.00;;;;;;5087678;28;20450;-84
2022/06/01 12:56:19;;;;;;;4.90;1.47;;;22.60;1.00;;;;;;5087009;28;20442;-83
2022/06/01 12:58:48;;;;;;;4.73;1.27;;;22.20;1.00;;;;;;5085531;28;20446;-84
2022/06/01 13:01:17;;;;;;;5.10;2.40;;;21.50;1.00;;;;;;5086623;28;20475;-83
2022/06/01 13:03:46;;;;;;;5.10;2.37;;;20.00;3.80;;;;;;5087649;28;20770;-83
2022/06/01 13:06:17;;;;;;;5.00;1.67;;;19.30;8.00;;;;;;5086126;28;20453;-83
2022/06/01 13:08:56;;;;;;;4.90;1.73;;;20.00;4.20;;;;;;5086317;28;20437;-83
2022/06/01 13:11:28;;;;;;;4.80;1.53;;;20.40;8.30;;;;;;5086286;28;20487;-83
2022/06/01 13:13:58;;;;;;;4.00;1.00;;;21.00;1.00;;;;;;5085581;28;20457;-84
2022/06/01 13:16:35;;;;;;;4.40;1.30;;;20.70;1.50;;;;;;5086092;28;20537;-83
2022/06/01 13:19:16;;;;;;;4.10;1.23;;;20.30;3.70;;;;;;5085457;28;20455;-83
2022/06/01 13:21:44;;;;;;;5.03;1.27;;;20.40;7.90;;;;;;5086556;28;20469;-83
2022/06/01 13:24:13;;;;;;;4.97;1.60;;;20.60;6.20;;;;;;5086509;28;20438;-83
2022/06/01 13:26:43;;;;;;;4.00;1.20;;;21.00;5.00;;;;;;5087050;28;20445;-84
2022/06/01 13:29:14;;;;;;;7.10;2.10;;;20.90;5.20;;;;;;5084577;28;20507;-85
2022/06/01 13:31:43;;;;;;;4.10;1.33;;;20.30;7.80;;;;;;5086903;28;20466;-85
2022/06/01 13:34:19;;;;;;;4.63;1.87;;;20.20;7.30;;;;;;5085833;28;20450;-82
2022/06/01 13:36:48;;;;;;;4.87;1.63;;;19.90;3.20;;;;;;5086537;28;20452;-81